Time;durP1;ratioP1;P1;durP2;ratioP2;P2;SDS_P1;SDS_P2;PMS_P1;PMS_P2;Temp;Humidity;BMP_temperature;BMP_pressure;BME280_temperature;BME280_humidity;BME280_pressure;Samples;Min_cycle;Max_cycle;Signal;HPM_P1;HPM_P2
2023/06/01 00:00:45;;;;;;;;;11.00;11.00;;;;;19.09;55.31;100970.44;5054232;28;45315;-68
2023/06/01 00:03:11;;;;;;;;;13.00;13.00;;;;;19.05;55.65;100972.47;5052773;28;45294;-70
2023/06/01 00:05:36;;;;;;;;;12.75;12.75;;;;;19.02;56.17;100971.84;5057172;28;45476;-68
2023/06/01 00:08:04;;;;;;;;;12.50;12.50;;;;;18.98;56.32;100979.19;5055359;28;60414;-69
2023/06/01 00:10:29;;;;;;;;;11.25;11.25;;;;;18.91;56.91;100973.41;5057418;28;45457;-71
2023/06/01 00:12:55;;;;;;;;;13.00;13.00;;;;;18.86;57.20;100967.53;5057465;28;45185;-70
2023/06/01 00:15:20;;;;;;;;;11.00;11.00;;;;;18.82;56.89;100966.06;5057871;28;45306;-70
2023/06/01 00:17:46;;;;;;;;;12.25;12.25;;;;;18.79;57.20;100967.09;5057368;28;46201;-71
2023/06/01 00:20:11;;;;;;;;;13.25;13.25;;;;;18.71;57.12;100958.78;5057336;28;45331;-69
2023/06/01 00:22:40;;;;;;;;;10.00;9.50;;;;;18.69;57.67;100955.38;5053695;28;45300;-71
2023/06/01 00:25:07;;;;;;;;;11.75;11.75;;;;;18.69;57.96;100961.56;5055405;28;45686;-70
2023/06/01 00:27:33;;;;;;;;;12.25;12.25;;;;;18.64;58.37;100952.16;5056618;28;45502;-70
2023/06/01 00:29:58;;;;;;;;;15.50;14.75;;;;;18.61;59.01;100955.03;5056626;28;59010;-69
2023/06/01 00:32:23;;;;;;;;;13.00;13.00;;;;;18.54;59.40;100942.16;5072291;28;45679;-71
2023/06/01 00:34:49;;;;;;;;;13.00;13.00;;;;;18.53;59.55;100955.56;5057504;28;45577;-71
2023/06/01 00:37:14;;;;;;;;;13.00;13.00;;;;;18.49;59.90;100954.06;5057031;28;45415;-71
2023/06/01 00:39:40;;;;;;;;;12.00;12.00;;;;;18.48;60.14;100965.66;5057342;28;45288;-70
2023/06/01 00:42:06;;;;;;;;;12.25;12.25;;;;;18.40;60.66;100950.22;5055826;28;45197;-69
2023/06/01 00:44:31;;;;;;;;;13.25;13.25;;;;;18.43;60.51;100965.13;5057330;28;45288;-71
2023/06/01 00:46:59;;;;;;;;;13.50;13.50;;;;;18.37;61.50;100958.41;5056523;28;45369;-70
2023/06/01 00:49:25;;;;;;;;;11.50;11.50;;;;;18.32;62.14;100952.56;5056026;28;45354;-71
2023/06/01 00:51:50;;;;;;;;;13.25;13.25;;;;;18.27;62.21;100952.00;5056573;28;45344;-70
2023/06/01 00:54:16;;;;;;;;;12.00;12.00;;;;;18.20;63.03;100946.22;5056986;28;45635;-69
2023/06/01 00:56:42;;;;;;;;;17.50;17.50;;;;;18.19;63.13;100953.38;5055523;28;46481;-69
2023/06/01 00:59:07;;;;;;;;;14.25;14.25;;;;;18.16;63.51;100947.38;5056896;28;45422;-70
2023/06/01 01:01:33;;;;;;;;;14.25;14.25;;;;;18.13;64.13;100956.44;5056830;28;45475;-71
2023/06/01 01:04:00;;;;;;;;;18.25;17.25;;;;;18.09;64.17;100949.63;5056817;28;45509;-70
2023/06/01 01:07:03;;;;;;;;;16.75;16.75;;;;;18.12;64.73;100961.84;5056684;28;45607;-70
2023/06/01 01:09:44;;;;;;;;;17.75;17.75;;;;;18.09;64.72;100957.59;5056379;28;45390;-70
2023/06/01 01:12:31;;;;;;;;;16.50;16.50;;;;;18.04;65.93;100955.22;5057104;28;45348;-71
2023/06/01 01:15:11;;;;;;;;;14.75;14.75;;;;;17.97;65.80;100943.25;5056903;28;45431;-70
2023/06/01 01:17:42;;;;;;;;;14.50;14.00;;;;;17.95;65.71;100951.31;5054015;28;45398;-72
2023/06/01 01:20:32;;;;;;;;;16.25;16.25;;;;;17.97;66.04;100956.56;5056224;28;45452;-72
2023/06/01 01:23:24;;;;;;;;;19.75;19.75;;;;;17.94;66.19;100959.41;5072162;27;45254;-70
2023/06/01 01:26:14;;;;;;;;;17.50;17.50;;;;;17.89;66.90;100959.72;5057127;28;45393;-71
2023/06/01 01:28:48;;;;;;;;;16.75;16.75;;;;;17.84;68.19;100956.50;5056608;28;46263;-69
2023/06/01 01:31:17;;;;;;;;;12.25;12.25;;;;;17.81;68.75;100962.00;5056767;28;45216;-70
2023/06/01 01:33:45;;;;;;;;;17.00;17.00;;;;;17.74;68.69;100952.72;5055470;28;45323;-69
2023/06/01 01:36:11;;;;;;;;;18.75;18.75;;;;;17.71;68.61;100947.59;5056907;28;45282;-70
2023/06/01 01:38:38;;;;;;;;;17.50;17.50;;;;;17.71;70.06;100959.13;5056361;28;45522;-68
2023/06/01 01:41:03;;;;;;;;;18.25;18.25;;;;;17.66;69.91;100959.41;5056259;28;45331;-69
2023/06/01 01:43:30;;;;;;;;;18.25;18.25;;;;;17.64;70.98;100957.81;5056269;28;45373;-69
2023/06/01 01:46:29;;;;;;;;;20.50;20.50;;;;;17.58;70.56;100961.69;5071996;27;45522;-70
2023/06/01 01:49:32;;;;;;;;;22.75;22.00;;;;;17.57;72.24;100969.78;5055604;28;46340;-66
2023/06/01 01:52:21;;;;;;;;;22.00;22.00;;;;;17.49;71.84;100968.44;5055890;28;45325;-69
2023/06/01 01:54:49;;;;;;;;;23.75;23.00;;;;;17.47;72.54;100958.88;5056264;28;45241;-67
2023/06/01 01:57:16;;;;;;;;;18.25;18.25;;;;;17.40;73.03;100960.19;5056606;28;45360;-70
2023/06/01 01:59:43;;;;;;;;;24.00;24.00;;;;;17.32;73.42;100953.56;5056150;28;46535;-70
2023/06/01 02:02:09;;;;;;;;;21.00;21.00;;;;;17.26;74.13;100953.94;5055835;28;45399;-69
2023/06/01 02:04:42;;;;;;;;;24.00;23.75;;;;;17.21;73.44;100953.38;5055841;28;45374;-66
2023/06/01 02:07:08;;;;;;;;;19.25;19.25;;;;;17.15;74.64;100946.63;5071708;27;45664;-68
2023/06/01 02:09:33;;;;;;;;;22.00;22.00;;;;;17.11;75.63;100946.94;5071069;28;47806;-69
2023/06/01 02:11:59;;;;;;;;;21.00;21.00;;;;;17.12;74.89;100952.13;5055565;28;45264;-66
2023/06/01 02:14:25;;;;;;;;;22.50;22.00;;;;;17.10;75.09;100958.53;5055760;28;45280;-69
2023/06/01 02:16:50;;;;;;;;;23.25;22.75;;;;;17.02;75.41;100949.22;5055870;28;45445;-66
2023/06/01 02:19:16;;;;;;;;;25.75;25.75;;;;;17.01;75.96;100936.88;5055916;28;46189;-69
2023/06/01 02:21:42;;;;;;;;;22.50;22.50;;;;;16.98;76.95;100938.84;5071200;27;45456;-68
2023/06/01 02:24:08;;;;;;;;;27.50;26.25;;;;;16.93;77.40;100939.97;5054034;28;45290;-69
2023/06/01 02:26:34;;;;;;;;;24.50;24.50;;;;;16.91;77.99;100941.84;5056064;28;45510;-70
2023/06/01 02:29:02;;;;;;;;;26.00;26.00;;;;;16.85;76.95;100939.56;5054365;28;46420;-71
2023/06/01 02:31:27;;;;;;;;;23.00;23.00;;;;;16.83;78.12;100935.28;5055238;28;45387;-70
2023/06/01 02:33:52;;;;;;;;;25.75;23.25;;;;;16.78;78.74;100930.28;5038594;28;45614;-67
2023/06/01 02:36:18;;;;;;;;;23.50;23.50;;;;;16.78;78.90;100936.44;5035470;28;45615;-68
2023/06/01 02:38:44;;;;;;;;;25.50;24.50;;;;;16.77;78.91;100936.53;5050404;28;47968;-71
2023/06/01 02:41:09;;;;;;;;;27.00;27.00;;;;;16.70;78.92;100936.03;5035125;28;45432;-68
2023/06/01 02:43:37;;;;;;;;;30.00;29.75;;;;;16.64;80.44;100934.63;5033919;28;45387;-68
2023/06/01 02:46:03;;;;;;;;;26.25;26.25;;;;;16.63;79.50;100937.34;5035517;28;45512;-69
2023/06/01 02:48:29;;;;;;;;;27.00;27.00;;;;;16.60;80.22;100938.41;5050663;28;48109;-70
2023/06/01 02:50:55;;;;;;;;;26.25;26.25;;;;;16.55;79.88;100936.97;5033662;28;45346;-67
2023/06/01 02:53:20;;;;;;;;;27.00;27.00;;;;;16.52;80.85;100937.16;5035312;28;45389;-65
2023/06/01 02:55:46;;;;;;;;;26.00;26.00;;;;;16.47;81.69;100946.25;5035369;28;45354;-69
2023/06/01 02:58:16;;;;;;;;;25.50;24.50;;;;;16.35;81.94;100926.56;5034860;28;45577;-69
2023/06/01 03:00:42;;;;;;;;;27.00;26.75;;;;;16.39;82.34;100940.53;5034935;28;45396;-67
2023/06/01 03:03:07;;;;;;;;;25.50;25.50;;;;;16.34;82.62;100942.59;5034915;28;45242;-68
2023/06/01 03:05:33;;;;;;;;;25.50;24.75;;;;;16.16;82.79;100916.19;5033779;28;45594;-70
2023/06/01 03:07:58;;;;;;;;;27.25;27.25;;;;;16.27;82.81;100938.59;5034789;28;45602;-67
2023/06/01 03:10:24;;;;;;;;;29.50;29.00;;;;;16.24;83.75;100939.63;5034654;28;45618;-67
2023/06/01 03:12:49;;;;;;;;;27.50;26.75;;;;;16.20;84.47;100941.63;5017213;28;45387;-66
2023/06/01 03:15:15;;;;;;;;;33.50;31.00;;;;;16.16;84.43;100931.25;5033413;28;45292;-66
2023/06/01 03:17:40;;;;;;;;;27.50;27.50;;;;;16.16;84.90;100942.75;5034491;28;45388;-66
2023/06/01 03:20:14;;;;;;;;;27.25;27.00;;;;;16.10;85.74;100937.78;5034690;28;45473;-65
2023/06/01 03:22:40;;;;;;;;;29.25;29.00;;;;;16.08;86.69;100939.69;5034652;28;45459;-70
2023/06/01 03:25:07;;;;;;;;;32.50;30.75;;;;;16.01;87.44;100933.00;5034762;28;45499;-69
2023/06/01 03:27:32;;;;;;;;;31.00;30.00;;;;;15.97;87.34;100937.63;5033098;28;47500;-70
2023/06/01 03:29:57;;;;;;;;;34.75;32.00;;;;;15.93;87.46;100937.91;5032953;28;45885;-70
2023/06/01 03:32:23;;;;;;;;;29.50;29.50;;;;;15.88;87.99;100939.00;5034435;28;45335;-68
2023/06/01 03:34:48;;;;;;;;;29.25;29.25;;;;;15.87;87.72;100939.06;5050182;28;45544;-68
2023/06/01 03:37:14;;;;;;;;;28.25;28.25;;;;;15.78;88.89;100928.03;5034203;28;45530;-69
2023/06/01 03:39:39;;;;;;;;;35.25;33.25;;;;;15.84;88.76;100947.19;5035611;28;45498;-69
2023/06/01 03:42:06;;;;;;;;;34.25;30.25;;;;;15.79;90.16;100936.84;5037978;28;45232;-70
2023/06/01 03:44:32;;;;;;;;;38.00;33.25;;;;;15.74;89.33;100944.19;5038067;28;45578;-67
2023/06/01 03:46:57;;;;;;;;;37.25;34.25;;;;;15.71;90.21;100942.59;5037623;28;45242;-67
2023/06/01 03:49:23;;;;;;;;;26.75;25.75;;;;;15.66;91.36;100944.66;5036373;28;45477;-65
2023/06/01 03:51:48;;;;;;;;;31.75;30.50;;;;;15.60;91.52;100937.88;5038087;28;45783;-68
2023/06/01 03:54:14;;;;;;;;;36.50;34.00;;;;;15.60;90.84;100940.53;5037897;28;45644;-66
2023/06/01 03:56:40;;;;;;;;;34.25;31.25;;;;;15.59;91.57;100940.63;5052825;28;47057;-67
2023/06/01 03:59:07;;;;;;;;;32.00;30.25;;;;;15.59;92.23;100952.06;5037588;28;45346;-69
2023/06/01 04:01:33;;;;;;;;;37.50;34.25;;;;;15.56;91.61;100948.75;5036608;28;45391;-68
2023/06/01 04:03:59;;;;;;;;;34.75;32.75;;;;;15.56;91.84;100948.75;5037915;28;45399;-70
2023/06/01 04:06:29;;;;;;;;;35.25;33.25;;;;;15.45;91.90;100934.28;5037396;28;46539;-69
2023/06/01 04:09:00;;;;;;;;;35.50;32.50;;;;;15.45;92.03;100942.25;5037664;28;45270;-67
2023/06/01 04:11:26;;;;;;;;;34.25;32.75;;;;;15.49;92.12;100948.22;5037483;28;45304;-70
2023/06/01 04:13:52;;;;;;;;;41.00;35.75;;;;;15.48;91.92;100957.09;5037975;28;45644;-69
2023/06/01 04:16:18;;;;;;;;;38.50;35.25;;;;;15.50;92.29;100957.88;5037208;28;45256;-70
2023/06/01 04:18:44;;;;;;;;;32.25;30.50;;;;;15.50;91.33;100957.88;5037290;28;45250;-69
2023/06/01 04:21:10;;;;;;;;;34.50;32.75;;;;;15.50;91.44;100957.88;5037401;28;45500;-70
2023/06/01 04:23:37;;;;;;;;;37.25;34.00;;;;;15.49;91.92;100958.81;5036263;28;45837;-69
2023/06/01 04:26:04;;;;;;;;;38.25;34.75;;;;;15.50;92.09;100963.19;5036887;28;46215;-69
2023/06/01 04:28:32;;;;;;;;;34.00;32.25;;;;;15.49;92.34;100966.78;5037346;28;45278;-69
2023/06/01 04:30:57;;;;;;;;;34.50;33.25;;;;;15.47;91.59;100961.56;5035818;28;45275;-70
2023/06/01 04:33:24;;;;;;;;;34.75;33.00;;;;;15.48;92.69;100962.41;5037529;28;50946;-68
2023/06/01 04:35:52;;;;;;;;;34.25;33.00;;;;;15.47;92.31;100966.88;5037251;28;46452;-70
2023/06/01 04:38:18;;;;;;;;;38.00;33.25;;;;;15.48;92.59;100970.38;5037073;28;45393;-71
2023/06/01 04:40:46;;;;;;;;;35.00;32.50;;;;;15.50;91.78;100975.59;5037159;28;45492;-68
2023/06/01 04:43:12;;;;;;;;;41.25;35.25;;;;;15.48;92.90;100967.72;5037755;28;45536;-69
2023/06/01 04:45:38;;;;;;;;;37.75;34.25;;;;;15.49;92.31;100974.72;5036891;28;45652;-70
2023/06/01 04:48:08;;;;;;;;;32.00;28.00;;;;;15.47;92.66;100972.19;5037170;28;45338;-70
2023/06/01 04:50:34;;;;;;;;;38.50;35.00;;;;;15.48;92.49;100971.25;5036125;28;45391;-70
2023/06/01 04:53:00;;;;;;;;;38.50;34.50;;;;;15.51;92.16;100978.16;5052314;28;45534;-70
2023/06/01 04:55:26;;;;;;;;;38.50;35.25;;;;;15.53;91.87;100975.44;5036811;28;46656;-66
2023/06/01 04:57:51;;;;;;;;;37.75;33.00;;;;;15.57;92.76;100982.28;5036489;28;45270;-68
2023/06/01 05:00:18;;;;;;;;;40.25;35.50;;;;;15.57;92.01;100976.97;5036199;28;60802;-69
2023/06/01 05:02:46;;;;;;;;;35.75;33.00;;;;;15.68;91.69;100971.94;5052367;28;45524;-68
2023/06/01 05:05:12;;;;;;;;;41.50;36.25;;;;;15.82;91.56;100976.44;5035093;28;47150;-70
2023/06/01 05:07:39;;;;;;;;;43.00;36.75;;;;;15.90;90.30;100978.72;5036419;28;45679;-69
2023/06/01 05:10:06;;;;;;;;;34.00;32.50;;;;;15.98;90.06;100980.94;5036445;28;45228;-70
2023/06/01 05:12:32;;;;;;;;;33.75;31.25;;;;;16.08;90.20;100982.13;5036786;28;45542;-70
2023/06/01 05:14:59;;;;;;;;;41.00;35.75;;;;;16.14;88.92;100978.25;5036645;28;47307;-68
2023/06/01 05:17:24;;;;;;;;;42.25;35.75;;;;;16.12;87.69;100964.22;5036452;28;45345;-69
2023/06/01 05:19:50;;;;;;;;;35.25;32.50;;;;;16.14;87.75;100957.91;5051684;28;45398;-70
2023/06/01 05:22:15;;;;;;;;;34.00;32.25;;;;;16.28;87.07;100973.00;5036527;28;45307;-67
2023/06/01 05:24:41;;;;;;;;;40.00;35.50;;;;;16.40;86.47;100983.84;5034164;28;47186;-69
2023/06/01 05:27:06;;;;;;;;;32.50;31.25;;;;;16.48;85.95;100974.50;5035861;28;45291;-71
2023/06/01 05:29:31;;;;;;;;;32.25;28.75;;;;;16.57;86.29;100985.53;5036235;28;45262;-69
2023/06/01 05:31:57;;;;;;;;;40.75;35.50;;;;;16.58;85.12;100982.78;5035360;28;45538;-68
2023/06/01 05:34:22;;;;;;;;;44.00;38.25;;;;;16.70;85.10;100997.13;5035574;28;45338;-68
2023/06/01 05:36:48;;;;;;;;;44.25;37.50;;;;;16.71;84.10;100982.91;5035507;28;57491;-71
2023/06/01 05:39:14;;;;;;;;;41.50;35.50;;;;;16.80;83.32;100994.78;5036022;28;45269;-71
2023/06/01 05:41:40;;;;;;;;;36.50;32.50;;;;;16.86;83.26;100988.25;5040446;28;45349;-71
2023/06/01 05:44:06;;;;;;;;;33.25;32.25;;;;;16.91;82.56;100991.47;5042044;28;45574;-70
2023/06/01 05:46:31;;;;;;;;;38.75;34.75;;;;;16.99;82.25;100999.03;5055647;28;45270;-71
2023/06/01 05:48:56;;;;;;;;;38.25;34.75;;;;;16.99;82.10;100994.56;5056403;28;45280;-71
2023/06/01 05:51:22;;;;;;;;;38.00;34.25;;;;;17.06;81.59;101000.34;5038754;28;45612;-71
2023/06/01 05:53:47;;;;;;;;;40.00;35.50;;;;;17.06;81.51;101005.69;5055714;28;47193;-71
2023/06/01 05:56:12;;;;;;;;;35.50;33.25;;;;;17.10;81.51;101017.00;5054106;28;50683;-72
2023/06/01 05:58:38;;;;;;;;;42.75;37.50;;;;;17.08;80.99;101009.97;5054735;28;46130;-71
2023/06/01 06:01:03;;;;;;;;;38.00;34.25;;;;;17.08;80.59;101007.31;5054850;28;45669;-71
2023/06/01 06:03:29;;;;;;;;;38.50;34.75;;;;;17.10;80.74;101009.00;5053498;28;45319;-74
2023/06/01 06:05:55;;;;;;;;;39.75;35.00;;;;;17.13;80.58;101011.47;5035613;28;47016;-70
2023/06/01 06:08:20;;;;;;;;;44.00;37.25;;;;;17.07;80.25;101007.38;5065911;28;45437;-75
2023/06/01 06:10:45;;;;;;;;;39.25;35.50;;;;;17.01;80.35;101002.44;5048923;28;45447;-72
2023/06/01 06:13:11;;;;;;;;;31.75;30.75;;;;;16.94;80.57;100994.81;5049151;28;45425;-68
2023/06/01 06:15:36;;;;;;;;;35.50;32.00;;;;;16.95;80.53;101003.63;5042947;28;45418;-70
2023/06/01 06:18:02;;;;;;;;;42.75;37.50;;;;;16.93;80.92;101000.19;5034815;28;45389;-69
2023/06/01 06:20:28;;;;;;;;;41.50;36.25;;;;;16.86;81.54;100994.41;5042794;28;45571;-69
2023/06/01 06:22:53;;;;;;;;;41.25;35.25;;;;;16.81;81.20;100996.50;5036835;28;45697;-70
2023/06/01 06:25:19;;;;;;;;;36.25;33.25;;;;;16.80;81.80;101008.06;5033225;28;45413;-68
2023/06/01 06:27:45;;;;;;;;;38.75;34.50;;;;;16.72;81.50;101000.56;5034399;28;45458;-68
2023/06/01 06:30:11;;;;;;;;;41.75;36.75;;;;;16.71;81.88;101011.28;5048181;28;45215;-70
2023/06/01 06:32:36;;;;;;;;;37.75;34.25;;;;;16.70;82.06;101005.09;5035809;28;45461;-69
2023/06/01 06:35:02;;;;;;;;;42.50;36.75;;;;;16.68;81.80;101009.66;5033543;28;45346;-68
2023/06/01 06:37:28;;;;;;;;;42.50;37.00;;;;;16.70;81.89;101005.09;5044052;28;45436;-70
2023/06/01 06:39:53;;;;;;;;;39.50;35.25;;;;;16.76;81.58;101015.34;5041583;28;45261;-70
2023/06/01 06:42:19;;;;;;;;;40.00;34.75;;;;;16.77;81.11;101011.75;5035542;28;45481;-68
2023/06/01 06:44:44;;;;;;;;;35.50;33.00;;;;;16.83;81.32;101009.69;5038729;28;45405;-69
2023/06/01 06:47:14;;;;;;;;;36.25;33.25;;;;;16.85;80.88;101015.75;5054002;28;47559;-68
2023/06/01 06:49:40;;;;;;;;;34.50;32.75;;;;;16.84;80.51;101001.63;5053034;28;45526;-69
2023/06/01 06:52:06;;;;;;;;;36.50;33.25;;;;;16.91;80.73;101010.06;5040731;28;45539;-70
2023/06/01 06:54:31;;;;;;;;;39.25;35.00;;;;;16.92;80.58;100998.50;5052352;28;45648;-68
2023/06/01 06:56:59;;;;;;;;;36.50;33.50;;;;;17.01;80.39;101005.97;5049546;28;45501;-70
2023/06/01 06:59:25;;;;;;;;;36.50;33.75;;;;;17.07;80.63;101015.34;5035990;28;45295;-72
2023/06/01 07:01:50;;;;;;;;;35.00;33.00;;;;;17.13;79.92;101008.81;5049574;28;48146;-73
2023/06/01 07:04:15;;;;;;;;;36.00;32.50;;;;;17.14;79.82;101007.88;5048639;28;45455;-69
2023/06/01 07:06:42;;;;;;;;;38.00;34.25;;;;;17.13;79.82;100995.53;5054479;28;45414;-67
2023/06/01 07:09:08;;;;;;;;;46.25;40.00;;;;;17.18;79.73;101006.75;5053114;28;45424;-69
2023/06/01 07:11:34;;;;;;;;;38.00;34.00;;;;;17.23;79.55;101007.31;5053765;28;45454;-68
2023/06/01 07:13:59;;;;;;;;;38.75;34.75;;;;;17.28;79.51;101015.00;5048708;28;45486;-67
2023/06/01 07:16:25;;;;;;;;;39.50;35.00;;;;;17.36;78.91;101010.03;5034341;28;45396;-70
2023/06/01 07:18:51;;;;;;;;;42.25;37.00;;;;;17.37;78.93;101006.44;5048768;28;45732;-67
2023/06/01 07:21:17;;;;;;;;;35.50;33.00;;;;;17.44;78.42;101009.59;5032047;28;45531;-67
2023/06/01 07:23:45;;;;;;;;;37.25;33.25;;;;;17.46;78.12;100999.69;5032395;28;45536;-69
2023/06/01 07:26:10;;;;;;;;;39.25;35.75;;;;;17.49;78.13;100999.50;5033519;28;45868;-67
2023/06/01 07:28:36;;;;;;;;;39.75;35.50;;;;;17.60;77.76;101022.78;5049543;28;45385;-68
2023/06/01 07:31:03;;;;;;;;;38.00;33.50;;;;;17.62;77.67;101005.75;5049711;28;46316;-66
2023/06/01 07:33:28;;;;;;;;;33.00;31.50;;;;;17.67;76.91;101003.66;5034200;28;45272;-68
2023/06/01 07:35:54;;;;;;;;;38.75;34.75;;;;;17.73;77.45;101013.06;5034189;28;45300;-67
2023/06/01 07:38:20;;;;;;;;;32.25;31.00;;;;;17.80;76.45;101014.38;5034071;28;45545;-71
2023/06/01 07:40:46;;;;;;;;;39.75;34.00;;;;;17.88;76.37;101010.38;5049006;28;48342;-70
2023/06/01 07:43:11;;;;;;;;;35.00;33.00;;;;;17.96;75.88;101006.25;5033923;28;45350;-70
2023/06/01 07:45:36;;;;;;;;;34.25;31.75;;;;;18.05;75.66;101022.66;5033969;28;45297;-67
2023/06/01 07:48:02;;;;;;;;;42.00;36.00;;;;;18.04;75.20;101019.13;5034261;28;45568;-69
2023/06/01 07:50:30;;;;;;;;;36.25;33.50;;;;;18.13;75.24;101014.16;5049072;28;47082;-70
2023/06/01 07:52:57;;;;;;;;;37.75;33.25;;;;;18.27;74.52;101024.75;5033908;28;45406;-70
2023/06/01 07:55:22;;;;;;;;;35.00;32.00;;;;;18.29;74.21;101028.16;5033874;28;45323;-69
2023/06/01 07:57:48;;;;;;;;;33.25;31.25;;;;;18.38;73.82;101011.56;5033966;28;45299;-70
2023/06/01 08:00:17;;;;;;;;;33.00;31.50;;;;;18.42;73.78;101014.03;5033557;28;45733;-70
2023/06/01 08:02:42;;;;;;;;;35.75;33.00;;;;;18.50;73.47;101025.88;5033744;28;45505;-72
2023/06/01 08:05:10;;;;;;;;;33.25;31.00;;;;;18.53;73.20;101016.81;5034550;28;45392;-68
2023/06/01 08:07:35;;;;;;;;;26.75;26.75;;;;;18.63;72.22;101019.75;5034568;28;45480;-69
2023/06/01 08:10:02;;;;;;;;;33.00;31.25;;;;;18.67;71.97;101024.78;5033600;28;45544;-68
2023/06/01 08:12:27;;;;;;;;;32.25;30.50;;;;;18.78;71.40;101034.69;5033963;28;45356;-69
2023/06/01 08:14:53;;;;;;;;;27.25;27.00;;;;;18.83;71.55;101027.22;5034398;28;45826;-68
2023/06/01 08:17:18;;;;;;;;;30.00;29.00;;;;;18.92;71.00;101031.09;5034497;28;45479;-71
2023/06/01 08:19:44;;;;;;;;;31.25;30.25;;;;;19.06;70.31;101032.81;5033834;28;45491;-69
2023/06/01 08:22:11;;;;;;;;;31.75;30.25;;;;;19.14;70.12;101036.78;5034013;28;45335;-68
2023/06/01 08:24:37;;;;;;;;;33.50;31.25;;;;;19.14;69.86;101023.47;5034566;28;45372;-67
2023/06/01 08:27:15;;;;;;;;;30.50;29.25;;;;;19.29;69.87;101038.41;5035900;28;45344;-69
2023/06/01 08:29:41;;;;;;;;;31.00;30.00;;;;;19.38;68.88;101043.09;5052517;28;48327;-67
2023/06/01 08:32:06;;;;;;;;;27.50;27.50;;;;;19.44;68.59;101047.13;5037237;28;49882;-67
2023/06/01 08:34:31;;;;;;;;;31.50;30.50;;;;;19.52;68.83;101049.25;5037360;28;45379;-67
2023/06/01 08:36:57;;;;;;;;;25.50;25.50;;;;;19.58;67.90;101035.47;5036799;28;46236;-70
2023/06/01 08:39:23;;;;;;;;;31.00;29.50;;;;;19.64;67.96;101034.19;5036567;28;47734;-66
2023/06/01 08:42:09;;;;;;;;;34.00;32.00;;;;;19.72;67.72;101034.50;5036787;28;45383;-66
2023/06/01 08:44:40;;;;;;;;;27.25;27.25;;;;;19.80;67.14;101031.25;5036444;28;45395;-67
2023/06/01 08:47:06;;;;;;;;;30.50;28.25;;;;;19.90;67.34;101039.50;5037074;28;45425;-69
2023/06/01 08:49:33;;;;;;;;;31.00;30.00;;;;;19.98;66.84;101034.47;5036606;28;45463;-69
2023/06/01 08:52:20;;;;;;;;;31.75;30.75;;;;;20.11;66.29;101039.72;5036325;28;45361;-67
2023/06/01 08:54:46;;;;;;;;;32.25;30.75;;;;;20.20;66.34;101030.22;5036774;28;45311;-67
2023/06/01 08:57:11;;;;;;;;;32.00;30.75;;;;;20.32;65.66;101036.47;5052065;28;45351;-67
2023/06/01 08:59:38;;;;;;;;;28.25;28.00;;;;;20.41;65.21;101019.75;5036691;28;46608;-67
2023/06/01 09:02:04;;;;;;;;;29.75;29.00;;;;;20.49;65.01;101024.50;5036221;28;45267;-67
2023/06/01 09:04:38;;;;;;;;;25.00;25.00;;;;;20.48;64.32;101014.78;5036158;28;45332;-68
2023/06/01 09:07:03;;;;;;;;;33.75;31.00;;;;;20.57;63.76;101008.72;5051782;28;45223;-67
2023/06/01 09:09:29;;;;;;;;;41.00;36.00;;;;;20.70;64.18;101019.34;5051344;28;47367;-68
2023/06/01 09:12:21;;;;;;;;;25.00;25.00;;;;;20.82;63.84;101022.97;5036212;28;45392;-67
2023/06/01 09:14:47;;;;;;;;;28.75;28.75;;;;;20.91;63.52;101016.03;5051710;28;45288;-67
2023/06/01 09:17:23;;;;;;;;;28.75;28.75;;;;;21.02;62.90;101019.59;5036272;28;45385;-69
2023/06/01 09:19:57;;;;;;;;;28.75;27.25;;;;;21.09;62.05;101011.09;5036244;28;46318;-69
2023/06/01 09:22:23;;;;;;;;;26.00;26.00;;;;;21.14;62.37;101007.06;5034589;28;45979;-67
2023/06/01 09:24:59;;;;;;;;;25.75;25.75;;;;;21.21;61.79;101006.63;5036018;28;45423;-70
2023/06/01 09:27:25;;;;;;;;;27.50;26.50;;;;;21.24;61.56;101009.88;5036239;28;45366;-70
2023/06/01 09:29:56;;;;;;;;;26.50;26.50;;;;;21.34;60.82;101014.50;5035913;28;46988;-69
2023/06/01 09:32:21;;;;;;;;;29.00;28.75;;;;;21.41;60.99;101008.56;5036032;28;45407;-69
2023/06/01 09:34:47;;;;;;;;;26.00;26.00;;;;;21.45;60.06;101003.78;5035955;28;45221;-68
2023/06/01 09:37:13;;;;;;;;;27.00;27.00;;;;;21.52;59.98;101010.34;5036012;28;45482;-67
2023/06/01 09:39:39;;;;;;;;;30.50;29.50;;;;;21.57;59.91;101010.00;5036287;28;45391;-69
2023/06/01 09:42:06;;;;;;;;;27.75;27.75;;;;;21.66;59.66;101006.63;5035762;28;45390;-67
2023/06/01 09:44:40;;;;;;;;;26.00;26.00;;;;;21.72;59.32;100995.41;5035357;28;45394;-68
2023/06/01 09:47:12;;;;;;;;;24.75;24.75;;;;;21.79;59.54;100994.91;5034336;28;45637;-67
2023/06/01 09:49:40;;;;;;;;;26.25;26.25;;;;;21.89;58.83;100993.19;5035297;28;46367;-68
2023/06/01 09:52:05;;;;;;;;;28.25;27.50;;;;;21.96;59.00;100990.88;5035007;28;45452;-70
2023/06/01 09:54:37;;;;;;;;;29.75;28.25;;;;;22.06;58.76;100997.16;5035213;28;45344;-65
2023/06/01 09:57:04;;;;;;;;;25.25;25.25;;;;;22.11;58.02;100992.28;5035632;28;45552;-68
2023/06/01 09:59:38;;;;;;;;;24.50;24.50;;;;;22.15;57.58;100993.72;5035234;28;46178;-68
2023/06/01 10:02:04;;;;;;;;;24.50;24.00;;;;;22.21;57.58;100995.03;5034037;28;45321;-68
2023/06/01 10:04:30;;;;;;;;;24.50;24.00;;;;;22.25;57.48;100982.22;5035540;28;45380;-68
2023/06/01 10:06:57;;;;;;;;;31.00;29.00;;;;;22.31;56.95;100984.41;5035497;28;45389;-70
2023/06/01 10:09:24;;;;;;;;;25.50;25.50;;;;;22.37;56.28;100989.25;5035082;28;46394;-69
2023/06/01 10:11:53;;;;;;;;;25.75;24.75;;;;;22.42;57.25;100984.34;5050377;28;45296;-66
2023/06/01 10:14:20;;;;;;;;;26.25;26.25;;;;;22.50;56.46;100983.75;5035261;28;45815;-67
2023/06/01 10:16:49;;;;;;;;;28.50;27.75;;;;;22.60;56.66;100983.78;5035060;28;45502;-68
2023/06/01 10:19:14;;;;;;;;;26.50;26.50;;;;;22.65;56.33;100984.25;5035113;28;45580;-67
2023/06/01 10:21:39;;;;;;;;;24.00;24.00;;;;;22.74;55.79;100985.31;5034975;28;45436;-70
2023/06/01 10:24:07;;;;;;;;;26.50;26.50;;;;;22.83;55.31;100986.34;5033595;28;45393;-67
2023/06/01 10:27:01;;;;;;;;;23.00;23.00;;;;;22.91;55.09;100986.53;5033683;28;45320;-69
2023/06/01 10:29:29;;;;;;;;;22.75;22.75;;;;;22.94;55.14;100969.31;5050081;28;48093;-71
2023/06/01 10:31:55;;;;;;;;;27.00;27.00;;;;;23.00;54.59;100971.47;5034298;28;45243;-70
2023/06/01 10:34:38;;;;;;;;;23.50;23.50;;;;;23.10;54.22;100975.03;5034610;28;45455;-68
2023/06/01 10:37:03;;;;;;;;;28.75;28.50;;;;;23.20;54.30;100983.97;5034952;28;45237;-70
2023/06/01 10:39:30;;;;;;;;;23.25;23.25;;;;;23.32;53.63;100986.59;5034828;28;45450;-71
2023/06/01 10:41:57;;;;;;;;;20.25;20.25;;;;;23.37;53.54;100983.53;5034455;28;45397;-69
2023/06/01 10:44:41;;;;;;;;;23.25;23.25;;;;;23.45;53.53;100978.31;5034825;28;45402;-68
2023/06/01 10:47:26;;;;;;;;;28.00;28.00;;;;;23.52;53.01;100978.66;5033529;28;45553;-67
2023/06/01 10:49:52;;;;;;;;;24.25;24.25;;;;;23.55;52.89;100976.50;5033344;28;47303;-69
2023/06/01 10:52:30;;;;;;;;;24.25;23.50;;;;;23.62;51.69;100974.16;5032874;28;45473;-71
2023/06/01 10:55:04;;;;;;;;;24.50;24.50;;;;;23.66;52.03;100966.66;5050116;28;45366;-70
2023/06/01 10:57:31;;;;;;;;;34.25;31.50;;;;;23.68;52.07;100973.59;5034540;28;45420;-74
2023/06/01 11:00:15;;;;;;;;;20.25;20.25;;;;;23.83;52.41;100973.19;5049683;28;47229;-69
2023/06/01 11:02:55;;;;;;;;;33.25;31.25;;;;;23.91;51.60;100962.59;5032312;28;45479;-69
2023/06/01 11:05:39;;;;;;;;;21.75;21.75;;;;;23.96;51.31;100968.41;5034509;28;45343;-71
2023/06/01 11:08:06;;;;;;;;;23.75;23.75;;;;;23.95;50.91;100957.81;5034401;28;45282;-71
2023/06/01 11:11:02;;;;;;;;;24.25;24.25;;;;;24.10;50.60;100951.06;5033623;28;45398;-69
2023/06/01 11:13:30;;;;;;;;;23.75;23.75;;;;;24.16;50.18;100952.31;5029207;28;45350;-71